createdAt,value
2022-10-18T00:01:53.663Z,15.63
2022-10-18T00:04:43.692Z,15.52
2022-10-18T00:07:33.581Z,12.88
2022-10-18T00:10:25.077Z,11.15
2022-10-18T00:13:14.673Z,10.23
2022-10-18T00:16:06.685Z,9.45
2022-10-18T00:18:56.241Z,7.43
2022-10-18T00:21:46.115Z,7.40
2022-10-18T00:24:35.611Z,6.07
2022-10-18T00:31:45.358Z,4.97
2022-10-18T00:34:35.311Z,6.22
2022-10-18T00:37:25.400Z,5.35
2022-10-18T00:40:17.766Z,5.85
2022-10-18T00:43:07.306Z,6.07
2022-10-18T00:45:57.314Z,5.75
2022-10-18T00:48:46.861Z,5.03
2022-10-18T00:51:46.022Z,5.97
2022-10-18T00:54:39.665Z,5.20
2022-10-18T00:57:29.884Z,7.30
2022-10-18T01:00:20.368Z,6.90
2022-10-18T01:03:10.917Z,7.53
2022-10-18T01:06:03.569Z,5.55
2022-10-18T01:09:15.472Z,6.20
2022-10-18T01:12:18.875Z,6.30
2022-10-18T01:15:30.817Z,6.57
2022-10-18T01:18:20.493Z,6.38
2022-10-18T01:21:16.501Z,5.80
2022-10-18T01:24:38.585Z,5.53
2022-10-18T01:27:34.208Z,5.38
2022-10-18T01:30:41.806Z,4.65
2022-10-18T01:33:39.247Z,4.80
2022-10-18T01:36:31.727Z,4.85
2022-10-18T01:39:28.825Z,4.63
2022-10-18T01:42:21.426Z,4.28
2022-10-18T01:45:12.368Z,4.93
2022-10-18T01:48:02.803Z,5.47
2022-10-18T01:50:55.363Z,6.72
2022-10-18T01:53:45.699Z,5.82
2022-10-18T01:56:56.032Z,5.60
2022-10-18T02:00:00.367Z,4.78
2022-10-18T02:02:53.149Z,6.13
2022-10-18T02:05:48.060Z,5.00
2022-10-18T02:08:50.612Z,5.80
2022-10-18T02:11:42.018Z,5.20
2022-10-18T02:14:32.565Z,5.43
2022-10-18T02:17:22.747Z,6.90
2022-10-18T02:20:13.642Z,7.72
2022-10-18T02:23:03.863Z,7.10
2022-10-18T02:25:54.540Z,6.10
2022-10-18T02:28:44.779Z,6.45
2022-10-18T02:31:57.251Z,6.60
2022-10-18T02:35:11.459Z,8.82
2022-10-18T02:38:04.605Z,6.00
2022-10-18T02:40:57.218Z,4.30
2022-10-18T02:43:47.173Z,5.28
2022-10-18T02:46:37.304Z,6.90
2022-10-18T02:49:27.246Z,6.20
2022-10-18T02:52:16.412Z,7.65
2022-10-18T02:55:07.513Z,7.80
2022-10-18T02:57:56.770Z,7.88
2022-10-18T03:00:46.359Z,8.20
2022-10-18T03:03:35.354Z,7.40
2022-10-18T03:06:25.330Z,5.40
2022-10-18T03:09:15.152Z,5.88
2022-10-18T03:12:04.547Z,6.05
2022-10-18T03:14:54.587Z,6.70
2022-10-18T03:17:44.702Z,6.60
2022-10-18T03:20:34.789Z,6.85
2022-10-18T03:23:24.912Z,6.43
2022-10-18T03:26:14.742Z,8.43
2022-10-18T03:29:05.148Z,9.77
2022-10-18T03:32:03.027Z,7.20
2022-10-18T03:34:53.488Z,6.63
2022-10-18T03:37:43.551Z,6.20
2022-10-18T03:40:33.352Z,6.18
2022-10-18T03:43:24.560Z,6.35
2022-10-18T03:46:13.698Z,5.75
2022-10-18T03:49:04.598Z,6.85
2022-10-18T03:51:54.217Z,6.28
2022-10-18T03:54:45.916Z,6.63
2022-10-18T03:57:35.293Z,8.82
2022-10-18T04:00:25.468Z,6.00
2022-10-18T04:03:15.334Z,6.22
2022-10-18T04:06:04.947Z,7.20
2022-10-18T04:08:56.722Z,7.65
2022-10-18T04:11:46.768Z,7.72
2022-10-18T04:14:36.928Z,7.47
2022-10-18T04:17:26.496Z,7.38
2022-10-18T04:20:16.678Z,7.13
2022-10-18T04:23:08.025Z,8.43
2022-10-18T04:25:57.705Z,6.78
2022-10-18T04:28:47.396Z,8.55
2022-10-18T04:31:36.911Z,7.57
2022-10-18T04:34:26.817Z,6.72
2022-10-18T04:37:16.578Z,5.90
2022-10-18T04:40:06.809Z,6.25
2022-10-18T04:42:57.147Z,5.50
2022-10-18T04:45:49.019Z,5.50
2022-10-18T04:48:38.805Z,6.65
2022-10-18T04:51:28.435Z,5.55
2022-10-18T04:54:18.084Z,5.32
2022-10-18T04:57:08.099Z,6.68
2022-10-18T04:59:57.961Z,5.63
2022-10-18T05:03:02.436Z,5.95
2022-10-18T05:06:06.739Z,5.30
2022-10-18T05:08:56.572Z,6.65
2022-10-18T05:11:46.487Z,6.53
2022-10-18T05:14:36.332Z,6.15
2022-10-18T05:17:25.616Z,5.40
2022-10-18T05:23:11.719Z,6.55
2022-10-18T05:26:07.537Z,5.68
2022-10-18T05:29:00.511Z,6.90
2022-10-18T05:31:50.648Z,6.55
2022-10-18T05:34:40.550Z,6.45
2022-10-18T05:37:29.853Z,6.57
2022-10-18T05:40:20.083Z,5.30
2022-10-18T05:43:10.546Z,6.22
2022-10-18T05:46:00.503Z,6.78
2022-10-18T05:48:59.291Z,6.22
2022-10-18T05:51:49.163Z,7.57
2022-10-18T05:54:38.857Z,6.28
2022-10-18T05:57:28.448Z,6.78
2022-10-18T06:00:19.131Z,5.88
2022-10-18T06:03:08.836Z,6.80
2022-10-18T06:06:07.709Z,5.93
2022-10-18T06:08:56.958Z,6.63
2022-10-18T06:11:46.748Z,5.40
2022-10-18T06:14:36.860Z,5.75
2022-10-18T06:17:28.973Z,6.15
2022-10-18T06:20:22.487Z,5.82
2022-10-18T06:23:12.036Z,6.30
2022-10-18T06:26:06.431Z,5.47
2022-10-18T06:28:56.263Z,5.65
2022-10-18T06:31:45.755Z,5.68
2022-10-18T06:34:35.578Z,5.60
2022-10-18T06:37:25.408Z,5.00
2022-10-18T06:40:14.925Z,5.60
2022-10-18T06:43:20.466Z,5.22
2022-10-18T06:46:14.274Z,6.00
2022-10-18T06:49:03.959Z,5.90
2022-10-18T06:51:55.114Z,6.07
2022-10-18T06:54:45.520Z,5.03
2022-10-18T06:57:35.524Z,5.45
2022-10-18T07:00:24.772Z,5.72
2022-10-18T07:03:14.512Z,6.00
2022-10-18T07:06:07.570Z,7.03
2022-10-18T07:09:01.166Z,6.93
2022-10-18T07:11:52.777Z,7.15
2022-10-18T07:14:42.388Z,6.55
2022-10-18T07:17:32.667Z,7.68
2022-10-18T07:20:22.327Z,6.50
2022-10-18T07:23:12.963Z,6.53
2022-10-18T07:26:03.339Z,6.55
2022-10-18T07:28:56.464Z,6.60
2022-10-18T07:31:46.803Z,5.78
2022-10-18T07:34:36.444Z,5.65
2022-10-18T07:37:30.238Z,6.65
2022-10-18T07:40:20.842Z,5.15
2022-10-18T07:43:12.250Z,4.75
2022-10-18T07:46:03.803Z,4.47
2022-10-18T07:48:53.639Z,4.75
2022-10-18T07:51:42.991Z,6.07
2022-10-18T07:54:32.412Z,5.78
2022-10-18T07:57:25.964Z,4.95
2022-10-18T08:00:15.877Z,5.03
2022-10-18T08:03:06.247Z,4.32
2022-10-18T08:05:59.049Z,4.90
2022-10-18T08:08:49.079Z,4.10
2022-10-18T08:11:38.825Z,4.75
2022-10-18T08:14:28.310Z,4.68
2022-10-18T08:17:17.669Z,4.00
2022-10-18T08:20:19.017Z,5.32
2022-10-18T08:23:17.044Z,5.85
2022-10-18T08:26:08.534Z,5.35
2022-10-18T08:29:17.551Z,4.97
2022-10-18T08:32:11.806Z,5.68
2022-10-18T08:35:04.267Z,8.73
2022-10-18T08:37:56.928Z,5.10
2022-10-18T08:40:46.874Z,5.18
2022-10-18T08:44:17.590Z,5.00
2022-10-18T08:47:12.932Z,4.85
2022-10-18T08:50:23.358Z,4.68
2022-10-18T08:53:21.625Z,4.00
2022-10-18T08:56:17.244Z,6.65
2022-10-18T08:59:12.220Z,10.13
2022-10-18T09:02:36.869Z,7.60
2022-10-18T09:06:02.874Z,6.13
2022-10-18T09:09:32.968Z,4.90
2022-10-18T09:12:45.442Z,5.63
2022-10-18T09:15:57.126Z,5.00
2022-10-18T09:19:08.244Z,5.63
2022-10-18T09:22:05.010Z,6.93
2022-10-18T09:25:13.837Z,5.63
2022-10-18T09:28:18.910Z,4.65
2022-10-18T09:31:32.556Z,5.40
2022-10-18T09:34:43.774Z,8.85
2022-10-18T09:37:37.787Z,9.38
2022-10-18T09:40:29.679Z,8.77
2022-10-18T09:43:26.458Z,6.22
2022-10-18T09:46:17.842Z,5.70
2022-10-18T09:49:54.850Z,6.07
2022-10-18T09:53:27.776Z,4.95
2022-10-18T09:56:18.858Z,7.13
2022-10-18T09:59:21.409Z,6.03
2022-10-18T10:02:25.816Z,4.78
2022-10-18T10:05:16.415Z,6.45
2022-10-18T10:08:09.723Z,6.95
2022-10-18T10:10:59.572Z,7.68
2022-10-18T10:13:50.632Z,6.18
2022-10-18T10:16:54.408Z,5.80
2022-10-18T10:20:28.857Z,5.50
2022-10-18T10:23:30.689Z,21.60
2022-10-18T10:26:30.864Z,7.05
2022-10-18T10:30:07.358Z,6.38
2022-10-18T10:32:58.463Z,4.90
2022-10-18T10:36:00.384Z,5.68
2022-10-18T10:39:20.337Z,7.88
2022-10-18T10:42:15.623Z,8.32
2022-10-18T10:45:05.938Z,8.45
2022-10-18T10:47:57.397Z,8.93
2022-10-18T10:50:56.990Z,7.20
2022-10-18T10:53:54.995Z,6.88
2022-10-18T10:57:05.748Z,8.20
2022-10-18T11:00:02.837Z,6.70
2022-10-18T11:03:31.446Z,9.32
2022-10-18T11:06:59.836Z,7.40
2022-10-18T11:09:52.905Z,5.30
2022-10-18T11:12:56.011Z,8.70
2022-10-18T11:15:49.601Z,4.80
2022-10-18T11:18:41.951Z,7.13
2022-10-18T11:21:33.980Z,11.07
2022-10-18T11:24:23.947Z,7.35
2022-10-18T11:27:28.814Z,6.18
2022-10-18T11:30:38.868Z,6.10
2022-10-18T11:34:07.739Z,3.90
2022-10-18T11:37:27.705Z,4.80
2022-10-18T11:40:35.003Z,5.82
2022-10-18T11:44:02.180Z,6.03
2022-10-18T11:47:16.205Z,7.47
2022-10-18T11:50:14.475Z,5.43
2022-10-18T11:53:25.690Z,5.13
2022-10-18T11:56:28.726Z,7.85
2022-10-18T11:59:40.851Z,7.00
2022-10-18T12:02:44.737Z,9.15
2022-10-18T12:05:38.785Z,10.02
2022-10-18T12:08:56.112Z,8.48
2022-10-18T12:11:55.764Z,7.82
2022-10-18T12:14:55.538Z,9.05
2022-10-18T12:17:50.050Z,9.35
2022-10-18T12:21:08.495Z,10.13
2022-10-18T12:24:24.961Z,11.23
2022-10-18T12:27:16.714Z,9.20
2022-10-18T12:31:01.216Z,8.38
2022-10-18T12:34:00.390Z,10.80
2022-10-18T12:37:18.885Z,10.02
2022-10-18T12:40:49.105Z,9.02
2022-10-18T12:43:39.037Z,9.70
2022-10-18T12:46:48.898Z,9.10
2022-10-18T12:49:42.678Z,8.82
2022-10-18T12:52:38.219Z,9.50
2022-10-18T12:55:28.015Z,8.75
2022-10-18T12:58:17.147Z,12.43
2022-10-18T13:01:09.232Z,9.65
2022-10-18T13:04:02.917Z,9.18
2022-10-18T13:07:01.821Z,9.32
2022-10-18T13:10:09.646Z,18.75
2022-10-18T13:13:38.270Z,14.07
2022-10-18T13:16:43.115Z,11.05
2022-10-18T13:20:20.541Z,16.85
2022-10-18T13:23:37.104Z,9.20
2022-10-18T13:26:43.571Z,9.48
2022-10-18T13:29:49.110Z,8.55
2022-10-18T13:33:01.261Z,8.57
2022-10-18T13:36:23.755Z,14.25
2022-10-18T13:39:23.276Z,15.85
2022-10-18T13:42:22.438Z,17.52
2022-10-18T13:45:33.445Z,18.15
2022-10-18T13:48:31.490Z,18.08
2022-10-18T13:51:28.857Z,17.38
2022-10-18T13:54:52.298Z,17.63
2022-10-18T13:57:50.662Z,16.88
2022-10-18T14:00:52.398Z,16.63
2022-10-18T14:03:56.723Z,15.75
2022-10-18T14:06:51.631Z,16.65
2022-10-18T14:09:54.170Z,24.85
2022-10-18T14:12:53.391Z,20.33
2022-10-18T14:15:45.898Z,17.65
2022-10-18T14:18:38.619Z,17.10
2022-10-18T14:21:35.883Z,16.92
2022-10-18T14:24:28.994Z,16.80
2022-10-18T14:27:30.110Z,16.88
2022-10-18T14:30:25.769Z,16.83
2022-10-18T14:34:01.457Z,17.90
2022-10-18T14:36:51.134Z,11.90
2022-10-18T14:39:40.580Z,11.25
2022-10-18T14:42:30.422Z,11.63
2022-10-18T14:45:23.203Z,14.18
2022-10-18T14:48:23.000Z,14.25
2022-10-18T14:51:15.944Z,14.80
2022-10-18T14:54:31.563Z,16.48
2022-10-18T14:57:27.408Z,16.08
2022-10-18T15:00:27.919Z,16.58
2022-10-18T15:03:19.030Z,17.52
2022-10-18T15:06:09.694Z,17.52
2022-10-18T15:09:02.784Z,14.00
2022-10-18T15:11:58.842Z,12.75
2022-10-18T15:14:49.304Z,10.73
2022-10-18T15:17:38.833Z,11.38
2022-10-18T15:20:33.037Z,11.90
2022-10-18T15:23:28.307Z,13.00
2022-10-18T15:26:28.525Z,13.10
2022-10-18T15:29:20.952Z,13.00
2022-10-18T15:32:23.471Z,13.75
2022-10-18T15:35:26.182Z,15.13
2022-10-18T15:38:18.288Z,14.32
2022-10-18T15:41:58.684Z,16.58
2022-10-18T15:44:52.495Z,15.80
2022-10-18T15:47:42.168Z,15.50
2022-10-18T15:50:48.436Z,16.20
2022-10-18T15:53:46.554Z,16.83
2022-10-18T15:56:37.650Z,15.48
2022-10-18T15:59:33.182Z,15.65
2022-10-18T16:02:23.125Z,16.60
2022-10-18T16:05:21.768Z,17.25
2022-10-18T16:08:31.834Z,16.95
2022-10-18T16:11:26.274Z,19.42
2022-10-18T16:14:15.877Z,17.98
2022-10-18T16:17:10.111Z,13.88
2022-10-18T16:20:00.339Z,12.40
2022-10-18T16:22:49.758Z,11.52
2022-10-18T16:25:40.514Z,10.82
2022-10-18T16:28:32.748Z,11.30
2022-10-18T16:31:24.298Z,12.32
2022-10-18T16:34:15.708Z,13.00
2022-10-18T16:37:04.824Z,14.90
2022-10-18T16:39:56.969Z,15.50
2022-10-18T16:42:46.578Z,16.50
2022-10-18T16:45:39.113Z,14.98
2022-10-18T16:48:28.609Z,16.50
2022-10-18T16:51:18.153Z,17.33
2022-10-18T16:54:07.849Z,17.08
2022-10-18T16:56:57.406Z,16.60
2022-10-18T16:59:49.924Z,17.88
2022-10-18T17:02:39.709Z,17.45
2022-10-18T17:05:32.545Z,17.23
2022-10-18T17:08:29.529Z,16.10
2022-10-18T17:11:19.429Z,16.20
2022-10-18T17:14:11.276Z,16.92
2022-10-18T17:17:01.094Z,18.15
2022-10-18T17:19:50.375Z,19.35
2022-10-18T17:22:39.461Z,19.90
2022-10-18T17:28:19.498Z,20.55
2022-10-18T17:31:09.362Z,18.35
2022-10-18T17:34:03.092Z,17.90
2022-10-18T17:36:52.951Z,16.40
2022-10-18T17:39:44.797Z,16.60
2022-10-18T17:42:38.221Z,16.60
2022-10-18T17:45:27.932Z,15.52
2022-10-18T17:48:17.305Z,15.65
2022-10-18T17:51:10.992Z,15.88
2022-10-18T17:54:00.765Z,17.30
2022-10-18T17:56:54.501Z,17.70
2022-10-18T17:59:48.566Z,17.75
2022-10-18T18:02:41.048Z,18.83
2022-10-18T18:05:35.652Z,19.92
2022-10-18T18:08:26.403Z,19.75
2022-10-18T18:11:17.435Z,19.25
2022-10-18T18:14:10.645Z,19.75
2022-10-18T18:17:02.529Z,20.27
2022-10-18T18:19:51.937Z,19.90
2022-10-18T18:22:42.923Z,17.52
2022-10-18T18:25:33.018Z,18.35
2022-10-18T18:28:24.870Z,17.95
2022-10-18T18:31:20.484Z,18.10
2022-10-18T18:34:11.753Z,18.65
2022-10-18T18:37:01.776Z,18.02
2022-10-18T18:39:52.474Z,18.45
2022-10-18T18:42:41.493Z,17.83
2022-10-18T18:45:31.574Z,18.85
2022-10-18T18:48:20.820Z,19.17
2022-10-18T18:51:14.635Z,18.33
2022-10-18T18:54:04.113Z,19.55
2022-10-18T18:56:53.593Z,20.17
2022-10-18T18:59:43.441Z,19.85
2022-10-18T19:02:32.740Z,20.60
2022-10-18T19:05:24.886Z,18.88
2022-10-18T19:08:14.097Z,18.33
2022-10-18T19:11:08.053Z,16.77
2022-10-18T19:13:58.634Z,18.90
2022-10-18T19:16:49.924Z,19.05
2022-10-18T19:19:41.728Z,19.85
2022-10-18T19:22:31.152Z,20.83
2022-10-18T19:25:23.439Z,20.30
2022-10-18T19:28:15.782Z,19.65
2022-10-18T19:31:04.783Z,18.40
2022-10-18T19:33:59.647Z,19.20
2022-10-18T19:36:50.671Z,20.83
2022-10-18T19:39:40.448Z,20.48
2022-10-18T19:42:31.414Z,21.67
2022-10-18T19:45:21.364Z,20.48
2022-10-18T19:48:13.508Z,20.27
2022-10-18T19:51:09.617Z,21.23
2022-10-18T19:54:00.164Z,20.55
2022-10-18T19:56:50.587Z,21.05
2022-10-18T20:02:30.486Z,19.80
2022-10-18T20:05:19.749Z,20.77
2022-10-18T20:08:09.167Z,21.85
2022-10-18T20:11:01.805Z,21.90
2022-10-18T20:13:53.059Z,21.70
2022-10-18T20:16:41.977Z,23.00
2022-10-18T20:19:31.044Z,22.73
2022-10-18T20:22:21.037Z,22.83
2022-10-18T20:25:10.801Z,22.20
2022-10-18T20:27:59.933Z,22.13
2022-10-18T20:30:50.106Z,19.98
2022-10-18T20:33:39.179Z,21.17
2022-10-18T20:36:29.697Z,19.35
2022-10-18T20:39:18.982Z,21.58
2022-10-18T20:42:08.445Z,20.67
2022-10-18T20:44:57.482Z,21.25
2022-10-18T20:47:48.349Z,23.15
2022-10-18T20:50:42.867Z,21.77
2022-10-18T20:53:34.795Z,23.35
2022-10-18T20:56:27.854Z,23.85
2022-10-18T20:59:18.016Z,23.23
2022-10-18T21:02:07.136Z,25.00
2022-10-18T21:04:56.776Z,25.42
2022-10-18T21:07:45.896Z,26.20
2022-10-18T21:10:35.826Z,26.95
2022-10-18T21:13:28.018Z,26.02
2022-10-18T21:16:17.535Z,27.35
2022-10-18T21:19:09.156Z,26.88
2022-10-18T21:22:01.689Z,30.98
2022-10-18T21:24:52.174Z,29.45
2022-10-18T21:27:42.603Z,28.80
2022-10-18T21:30:31.761Z,27.15
2022-10-18T21:33:21.200Z,26.13
2022-10-18T21:36:12.318Z,26.75
2022-10-18T21:39:03.133Z,26.10
2022-10-18T21:41:52.797Z,24.52
2022-10-18T21:44:42.339Z,25.38
2022-10-18T21:47:31.523Z,26.25
2022-10-18T21:50:21.464Z,25.33
2022-10-18T21:53:11.331Z,24.85
2022-10-18T21:56:15.031Z,24.80
2022-10-18T21:59:08.446Z,24.42
2022-10-18T22:01:58.671Z,25.33
2022-10-18T22:04:48.711Z,24.35
2022-10-18T22:07:38.360Z,25.70
2022-10-18T22:10:28.316Z,24.45
2022-10-18T22:13:18.492Z,25.30
2022-10-18T22:16:09.140Z,23.80
2022-10-18T22:19:01.016Z,32.92
2022-10-18T22:21:50.338Z,27.00
2022-10-18T22:24:39.751Z,25.30
2022-10-18T22:27:33.731Z,26.85
2022-10-18T22:30:23.517Z,40.05
2022-10-18T22:33:13.348Z,28.52
2022-10-18T22:36:03.314Z,27.23
2022-10-18T22:38:52.627Z,27.13
2022-10-18T22:41:42.984Z,26.48
2022-10-18T22:44:32.726Z,29.33
2022-10-18T22:47:23.280Z,28.88
2022-10-18T22:50:13.124Z,27.58
2022-10-18T22:53:02.301Z,28.92
2022-10-18T22:56:00.655Z,28.40
2022-10-18T22:59:00.635Z,26.80
2022-10-18T23:01:50.825Z,28.65
2022-10-18T23:04:40.428Z,29.02
2022-10-18T23:07:30.552Z,28.85
2022-10-18T23:10:19.883Z,31.75
2022-10-18T23:13:12.605Z,33.45
2022-10-18T23:16:05.042Z,31.48
2022-10-18T23:18:56.457Z,33.15
2022-10-18T23:21:45.764Z,29.35
2022-10-18T23:24:35.765Z,30.38
2022-10-18T23:27:25.192Z,32.25
2022-10-18T23:30:14.772Z,32.15
2022-10-18T23:33:04.374Z,32.03
2022-10-18T23:35:54.227Z,31.48
2022-10-18T23:38:44.778Z,29.52
2022-10-18T23:41:39.801Z,24.08
2022-10-18T23:44:31.857Z,24.92
2022-10-18T23:47:21.567Z,25.75
2022-10-18T23:50:11.923Z,24.40
2022-10-18T23:53:01.949Z,25.17
2022-10-18T23:56:00.622Z,25.45
2022-10-18T23:58:50.367Z,26.25
